createdAt,value
2018-11-13T00:00:13.148Z,0
2018-11-13T00:01:12.895Z,0
2018-11-13T00:02:13.188Z,0
2018-11-13T00:03:13.225Z,0
2018-11-13T00:04:12.963Z,0
2018-11-13T00:05:12.985Z,0
2018-11-13T00:06:13.265Z,0
2018-11-13T00:07:13.026Z,0
2018-11-13T00:08:13.105Z,0
2018-11-13T00:09:13.639Z,0
2018-11-13T00:10:13.084Z,0
2018-11-13T00:11:12.892Z,0
2018-11-13T00:12:13.139Z,0
2018-11-13T00:13:13.159Z,0
2018-11-13T00:14:13.451Z,0
2018-11-13T00:15:13.746Z,0
2018-11-13T00:16:12.961Z,0
2018-11-13T00:17:12.977Z,0
2018-11-13T00:18:13.275Z,0
2018-11-13T00:19:13.554Z,0
2018-11-13T00:20:13.050Z,0
2018-11-13T00:21:13.083Z,0
2018-11-13T00:22:13.626Z,0
2018-11-13T00:23:13.660Z,0
2018-11-13T00:24:13.982Z,0
2018-11-13T00:25:13.426Z,0
2018-11-13T00:26:13.711Z,0
2018-11-13T00:27:14.017Z,0
2018-11-13T00:28:13.758Z,0
2018-11-13T00:29:13.244Z,0
2018-11-13T00:30:13.546Z,0
2018-11-13T00:31:13.561Z,0
2018-11-13T00:32:13.578Z,0
2018-11-13T00:33:13.351Z,0
2018-11-13T00:34:13.403Z,0
2018-11-13T00:35:13.664Z,0
2018-11-13T00:36:14.204Z,0
2018-11-13T00:37:13.958Z,0
2018-11-13T00:38:13.726Z,0
2018-11-13T00:39:14.197Z,0
2018-11-13T00:40:13.504Z,0
2018-11-13T00:41:13.796Z,0
2018-11-13T00:42:13.810Z,0
2018-11-13T00:43:14.098Z,0
2018-11-13T00:44:14.121Z,0
2018-11-13T00:45:13.918Z,0
2018-11-13T00:46:13.897Z,0
2018-11-13T00:47:13.647Z,0
2018-11-13T00:48:13.955Z,0
2018-11-13T00:49:13.962Z,0
2018-11-13T00:50:13.999Z,0
2018-11-13T00:51:14.024Z,0
2018-11-13T00:52:14.303Z,0
2018-11-13T00:53:14.057Z,0
2018-11-13T00:54:14.075Z,0
2018-11-13T00:55:13.824Z,0
2018-11-13T00:56:14.395Z,0
2018-11-13T00:57:14.407Z,0
2018-11-13T00:58:14.440Z,0
2018-11-13T00:59:13.940Z,0
2018-11-13T01:00:14.291Z,0
2018-11-13T01:01:14.231Z,0
2018-11-13T01:02:14.273Z,0
2018-11-13T01:03:14.287Z,0
2018-11-13T01:04:14.304Z,0
2018-11-13T01:05:14.176Z,0
2018-11-13T01:06:14.357Z,0
2018-11-13T01:07:14.374Z,0
2018-11-13T01:08:14.937Z,0
2018-11-13T01:09:14.411Z,0
2018-11-13T01:10:14.171Z,0
2018-11-13T01:11:14.459Z,0
2018-11-13T01:12:14.206Z,0
2018-11-13T01:13:15.041Z,0
2018-11-13T01:14:14.794Z,0
2018-11-13T01:15:15.370Z,0
2018-11-13T01:16:14.311Z,0
2018-11-13T01:17:14.879Z,0
2018-11-13T01:18:14.610Z,0
2018-11-13T01:19:14.371Z,0
2018-11-13T01:20:14.654Z,0
2018-11-13T01:21:14.695Z,0
2018-11-13T01:22:15.251Z,0
2018-11-13T01:23:14.464Z,0
2018-11-13T01:24:15.317Z,0
2018-11-13T01:25:15.058Z,0
2018-11-13T01:26:15.327Z,0
2018-11-13T01:27:14.809Z,0
2018-11-13T01:28:14.844Z,0
2018-11-13T01:29:14.872Z,0
2018-11-13T01:30:15.159Z,0
2018-11-13T01:31:15.244Z,0
2018-11-13T01:32:14.935Z,0
2018-11-13T01:33:14.970Z,0
2018-11-13T01:34:14.980Z,0
2018-11-13T01:35:15.024Z,0
2018-11-13T01:36:15.543Z,0
2018-11-13T01:37:15.302Z,0
2018-11-13T01:38:15.061Z,0
2018-11-13T01:39:15.090Z,0
2018-11-13T01:40:15.391Z,0
2018-11-13T01:41:15.155Z,0
2018-11-13T01:42:14.890Z,0
2018-11-13T01:43:15.164Z,0
2018-11-13T01:44:15.725Z,0
2018-11-13T01:45:15.494Z,0
2018-11-13T01:46:15.537Z,0
2018-11-13T01:47:14.991Z,0
2018-11-13T01:48:15.770Z,0
2018-11-13T01:49:15.842Z,0
2018-11-13T01:50:15.336Z,0
2018-11-13T01:51:15.349Z,0
2018-11-13T01:52:15.650Z,0
2018-11-13T01:53:15.127Z,0
2018-11-13T01:54:15.431Z,0
2018-11-13T01:55:15.460Z,0
2018-11-13T01:56:15.463Z,0
2018-11-13T01:57:16.432Z,0
2018-11-13T01:58:15.515Z,0
2018-11-13T01:59:15.269Z,0
2018-11-13T02:00:16.088Z,0
2018-11-13T02:01:15.588Z,0
2018-11-13T02:02:15.865Z,0
2018-11-13T02:03:15.629Z,0
2018-11-13T02:04:15.640Z,0
2018-11-13T02:05:15.937Z,0
2018-11-13T02:06:15.424Z,0
2018-11-13T02:07:15.709Z,0
2018-11-13T02:08:15.731Z,0
2018-11-13T02:09:15.499Z,0
2018-11-13T02:10:15.515Z,0
2018-11-13T02:11:16.065Z,0
2018-11-13T02:12:15.832Z,0
2018-11-13T02:13:15.593Z,0
2018-11-13T02:14:16.135Z,0
2018-11-13T02:15:16.162Z,0
2018-11-13T02:16:16.442Z,0
2018-11-13T02:17:16.235Z,0
2018-11-13T02:18:15.965Z,0
2018-11-13T02:19:15.973Z,0
2018-11-13T02:20:15.746Z,0
2018-11-13T02:21:16.023Z,0
2018-11-13T02:22:16.309Z,0
2018-11-13T02:23:16.597Z,0
2018-11-13T02:24:16.083Z,0
2018-11-13T02:25:15.862Z,0
2018-11-13T02:26:16.142Z,0
2018-11-13T02:27:16.165Z,0
2018-11-13T02:28:16.182Z,0
2018-11-13T02:29:16.201Z,0
2018-11-13T02:30:16.506Z,0
2018-11-13T02:31:16.789Z,0
2018-11-13T02:32:16.570Z,0
2018-11-13T02:33:16.310Z,0
2018-11-13T02:34:16.330Z,0
2018-11-13T02:35:16.750Z,0
2018-11-13T02:36:16.919Z,0
2018-11-13T02:37:16.671Z,0
2018-11-13T02:38:16.698Z,0
2018-11-13T02:39:16.434Z,0
2018-11-13T02:40:16.184Z,0
2018-11-13T02:41:16.744Z,0
2018-11-13T02:42:16.762Z,0
2018-11-13T02:43:16.782Z,0
2018-11-13T02:44:16.559Z,0
2018-11-13T02:45:16.842Z,0
2018-11-13T02:46:16.855Z,0
2018-11-13T02:47:17.429Z,0
2018-11-13T02:48:16.750Z,0
2018-11-13T02:49:16.989Z,0
2018-11-13T02:50:16.984Z,0
2018-11-13T02:51:16.704Z,0
2018-11-13T02:52:16.454Z,0
2018-11-13T02:53:16.473Z,0
2018-11-13T02:54:16.494Z,0
2018-11-13T02:55:16.797Z,0
2018-11-13T02:56:17.093Z,0
2018-11-13T02:57:16.838Z,0
2018-11-13T02:58:16.852Z,0
2018-11-13T02:59:16.600Z,0
2018-11-13T03:00:16.896Z,0
2018-11-13T03:01:17.191Z,0
2018-11-13T03:02:17.224Z,0
2018-11-13T03:03:17.511Z,0
2018-11-13T03:04:17.259Z,0
2018-11-13T03:05:17.000Z,0
2018-11-13T03:06:17.305Z,0
2018-11-13T03:07:17.315Z,0
2018-11-13T03:08:17.347Z,0
2018-11-13T03:09:17.116Z,0
2018-11-13T03:10:17.651Z,0
2018-11-13T03:11:17.146Z,0
2018-11-13T03:12:17.165Z,0
2018-11-13T03:13:17.184Z,0
2018-11-13T03:14:17.213Z,0
2018-11-13T03:15:17.525Z,0
2018-11-13T03:16:17.791Z,0
2018-11-13T03:17:17.273Z,0
2018-11-13T03:18:17.558Z,0
2018-11-13T03:19:17.325Z,0
2018-11-13T03:20:17.336Z,0
2018-11-13T03:21:17.365Z,0
2018-11-13T03:22:17.400Z,0
2018-11-13T03:23:17.408Z,0
2018-11-13T03:24:17.704Z,0
2018-11-13T03:25:17.747Z,0
2018-11-13T03:26:17.216Z,0
2018-11-13T03:27:17.767Z,0
2018-11-13T03:28:17.529Z,0
2018-11-13T03:29:17.550Z,0
2018-11-13T03:30:17.869Z,0
2018-11-13T03:31:18.840Z,0
2018-11-13T03:32:17.649Z,0
2018-11-13T03:33:17.627Z,0
2018-11-13T03:34:17.657Z,0
2018-11-13T03:35:17.698Z,0
2018-11-13T03:36:17.704Z,0
2018-11-13T03:37:18.272Z,0
2018-11-13T03:38:17.487Z,0
2018-11-13T03:39:18.349Z,0
2018-11-13T03:40:17.526Z,0
2018-11-13T03:41:18.081Z,0
2018-11-13T03:42:18.093Z,0
2018-11-13T03:43:18.112Z,0
2018-11-13T03:44:17.905Z,0
2018-11-13T03:45:17.901Z,0
2018-11-13T03:46:17.659Z,0
2018-11-13T03:47:17.947Z,0
2018-11-13T03:48:18.239Z,0
2018-11-13T03:49:17.980Z,0
2018-11-13T03:50:18.022Z,0
2018-11-13T03:51:18.042Z,0
2018-11-13T03:52:18.059Z,0
2018-11-13T03:53:18.076Z,0
2018-11-13T03:54:17.853Z,0
2018-11-13T03:55:18.675Z,0
2018-11-13T03:56:18.418Z,0
2018-11-13T03:57:18.170Z,0
2018-11-13T03:58:18.455Z,0
2018-11-13T03:59:18.478Z,0
2018-11-13T04:00:17.963Z,0
2018-11-13T04:01:18.528Z,0
2018-11-13T04:02:18.011Z,0
2018-11-13T04:03:18.865Z,0
2018-11-13T04:04:18.051Z,0
2018-11-13T04:05:18.904Z,0
2018-11-13T04:06:18.104Z,0
2018-11-13T04:07:18.389Z,0
2018-11-13T04:08:18.414Z,0
2018-11-13T04:09:18.704Z,0
2018-11-13T04:10:18.461Z,0
2018-11-13T04:11:18.489Z,0
2018-11-13T04:12:18.786Z,0
2018-11-13T04:13:18.522Z,0
2018-11-13T04:14:18.819Z,0
2018-11-13T04:15:18.303Z,0
2018-11-13T04:16:18.874Z,0
2018-11-13T04:17:18.616Z,0
2018-11-13T04:18:18.909Z,0
2018-11-13T04:19:18.660Z,0
2018-11-13T04:20:18.693Z,0
2018-11-13T04:21:18.699Z,0
2018-11-13T04:22:18.726Z,0
2018-11-13T04:23:18.774Z,0
2018-11-13T04:24:18.501Z,0
2018-11-13T04:25:18.807Z,0
2018-11-13T04:26:19.344Z,0
2018-11-13T04:27:18.836Z,0
2018-11-13T04:28:19.147Z,0
2018-11-13T04:29:18.898Z,0
2018-11-13T04:30:18.952Z,0
2018-11-13T04:31:18.923Z,0
2018-11-13T04:32:19.236Z,0
2018-11-13T04:33:18.978Z,0
2018-11-13T04:34:19.005Z,0
2018-11-13T04:35:19.286Z,0
2018-11-13T04:36:18.766Z,0
2018-11-13T04:37:19.322Z,0
2018-11-13T04:38:19.075Z,0
2018-11-13T04:39:19.628Z,0
2018-11-13T04:40:19.384Z,0
2018-11-13T04:41:18.886Z,0
2018-11-13T04:42:18.900Z,0
2018-11-13T04:43:18.922Z,0
2018-11-13T04:44:19.480Z,0
2018-11-13T04:45:19.507Z,0
2018-11-13T04:46:19.513Z,0
2018-11-13T04:47:19.547Z,0
2018-11-13T04:48:19.563Z,0
2018-11-13T04:49:19.315Z,0
2018-11-13T04:50:19.356Z,0
2018-11-13T04:51:19.101Z,0
2018-11-13T04:52:19.392Z,0
2018-11-13T04:53:19.949Z,0
2018-11-13T04:54:19.713Z,0
2018-11-13T04:55:19.731Z,0
2018-11-13T04:56:19.481Z,0
2018-11-13T04:57:19.758Z,0
2018-11-13T04:58:19.544Z,0
2018-11-13T04:59:19.533Z,0
2018-11-13T05:00:19.859Z,0
2018-11-13T05:01:19.595Z,0
2018-11-13T05:02:19.875Z,0
2018-11-13T05:03:19.897Z,0
2018-11-13T05:04:19.944Z,0
2018-11-13T05:05:19.943Z,0
2018-11-13T05:06:19.970Z,0
2018-11-13T05:07:19.448Z,0
2018-11-13T05:08:20.000Z,0
2018-11-13T05:09:19.507Z,0
2018-11-13T05:10:20.437Z,0
2018-11-13T05:11:20.065Z,0
2018-11-13T05:12:19.561Z,0
2018-11-13T05:13:19.590Z,0
2018-11-13T05:14:20.130Z,0
2018-11-13T05:15:19.624Z,0
2018-11-13T05:16:19.922Z,0
2018-11-13T05:17:20.210Z,0
2018-11-13T05:18:19.976Z,0
2018-11-13T05:19:19.974Z,0
2018-11-13T05:20:19.994Z,0
2018-11-13T05:21:20.301Z,0
2018-11-13T05:22:20.049Z,0
2018-11-13T05:23:20.823Z,0
2018-11-13T05:24:20.089Z,0
2018-11-13T05:25:20.402Z,0
2018-11-13T05:26:20.677Z,0
2018-11-13T05:27:20.160Z,0
2018-11-13T05:28:20.178Z,0
2018-11-13T05:29:20.469Z,0
2018-11-13T05:30:20.758Z,0
2018-11-13T05:31:20.514Z,0
2018-11-13T05:32:20.265Z,0
2018-11-13T05:33:20.837Z,0
2018-11-13T05:34:20.594Z,0
2018-11-13T05:35:20.620Z,0
2018-11-13T05:36:20.081Z,0
2018-11-13T05:37:20.392Z,0
2018-11-13T05:38:20.404Z,0
2018-11-13T05:39:20.429Z,0
2018-11-13T05:40:20.167Z,0
2018-11-13T05:41:20.196Z,0
2018-11-13T05:42:20.748Z,0
2018-11-13T05:43:20.499Z,0
2018-11-13T05:44:20.801Z,0
2018-11-13T05:45:20.830Z,0
2018-11-13T05:46:20.308Z,0
2018-11-13T05:47:21.881Z,0
2018-11-13T05:48:20.882Z,0
2018-11-13T05:49:20.676Z,0
2018-11-13T05:50:20.663Z,0
2018-11-13T05:51:20.418Z,0
2018-11-13T05:52:20.714Z,0
2018-11-13T05:53:20.739Z,0
2018-11-13T05:54:20.753Z,0
2018-11-13T05:55:21.055Z,0
2018-11-13T05:56:21.323Z,0
2018-11-13T05:57:20.822Z,0
2018-11-13T05:58:21.104Z,0
2018-11-13T05:59:21.128Z,0
2018-11-13T06:00:20.613Z,0
2018-11-13T06:01:20.898Z,0
2018-11-13T06:02:20.925Z,0
2018-11-13T06:03:21.224Z,0
2018-11-13T06:04:20.958Z,0
2018-11-13T06:05:21.524Z,0
2018-11-13T06:06:21.556Z,0
2018-11-13T06:07:21.297Z,0
2018-11-13T06:08:21.408Z,0
2018-11-13T06:09:20.811Z,0
2018-11-13T06:10:21.090Z,0
2018-11-13T06:11:21.110Z,0
2018-11-13T06:12:21.166Z,0
2018-11-13T06:13:21.170Z,0
2018-11-13T06:14:20.931Z,0
2018-11-13T06:15:20.935Z,0
2018-11-13T06:16:21.233Z,0
2018-11-13T06:17:20.980Z,0
2018-11-13T06:18:22.327Z,0
2018-11-13T06:19:21.302Z,0
2018-11-13T06:20:21.056Z,0
2018-11-13T06:21:21.601Z,0
2018-11-13T06:22:21.643Z,0
2018-11-13T06:23:21.397Z,0
2018-11-13T06:24:21.671Z,0
2018-11-13T06:25:21.981Z,0
2018-11-13T06:26:21.447Z,0
2018-11-13T06:27:21.744Z,4
2018-11-13T06:28:21.501Z,4
2018-11-13T06:29:21.830Z,4
2018-11-13T06:30:21.813Z,4
2018-11-13T06:31:21.290Z,4
2018-11-13T06:32:21.591Z,8
2018-11-13T06:33:21.604Z,4
2018-11-13T06:34:21.359Z,8
2018-11-13T06:35:21.655Z,8
2018-11-13T06:36:22.201Z,8
2018-11-13T06:37:21.695Z,8
2018-11-13T06:38:21.449Z,8
2018-11-13T06:39:21.750Z,8
2018-11-13T06:40:21.754Z,12
2018-11-13T06:41:22.040Z,16
2018-11-13T06:42:21.814Z,12
2018-11-13T06:43:21.829Z,12
2018-11-13T06:44:21.846Z,12
2018-11-13T06:45:21.597Z,12
2018-11-13T06:46:22.159Z,16
2018-11-13T06:47:22.169Z,20
2018-11-13T06:48:22.267Z,16
2018-11-13T06:49:22.024Z,12
2018-11-13T06:50:21.980Z,16
2018-11-13T06:51:22.261Z,20
2018-11-13T06:52:21.772Z,20
2018-11-13T06:53:21.768Z,20
2018-11-13T06:54:22.324Z,20
2018-11-13T06:55:22.617Z,24
2018-11-13T06:56:22.114Z,24
2018-11-13T06:57:22.401Z,28
2018-11-13T06:58:22.714Z,24
2018-11-13T06:59:22.184Z,28
2018-11-13T07:00:22.205Z,32
2018-11-13T07:01:22.763Z,44
2018-11-13T07:02:22.509Z,48
2018-11-13T07:03:22.521Z,48
2018-11-13T07:04:22.278Z,40
2018-11-13T07:05:22.342Z,36
2018-11-13T07:06:22.870Z,36
2018-11-13T07:07:22.355Z,32
2018-11-13T07:08:22.912Z,28
2018-11-13T07:09:22.397Z,24
2018-11-13T07:10:22.417Z,32
2018-11-13T07:11:22.196Z,40
2018-11-13T07:12:22.726Z,40
2018-11-13T07:13:22.479Z,44
2018-11-13T07:14:22.494Z,48
2018-11-13T07:15:22.258Z,56
2018-11-13T07:16:22.833Z,64
2018-11-13T07:17:22.567Z,84
2018-11-13T07:18:23.004Z,108
2018-11-13T07:19:22.344Z,124
2018-11-13T07:20:22.644Z,156
2018-11-13T07:21:22.686Z,164
2018-11-13T07:22:22.682Z,136
2018-11-13T07:23:22.695Z,108
2018-11-13T07:24:22.987Z,80
2018-11-13T07:25:23.249Z,84
2018-11-13T07:26:23.041Z,60
2018-11-13T07:27:22.939Z,80
2018-11-13T07:28:22.800Z,132
2018-11-13T07:29:23.101Z,184
2018-11-13T07:30:23.118Z,172
2018-11-13T07:31:22.983Z,108
2018-11-13T07:32:22.889Z,96
2018-11-13T07:33:23.200Z,80
2018-11-13T07:34:23.583Z,92
2018-11-13T07:35:22.691Z,116
2018-11-13T07:36:22.989Z,156
2018-11-13T07:37:23.011Z,196
2018-11-13T07:38:23.039Z,196
2018-11-13T07:39:23.312Z,244
2018-11-13T07:40:22.817Z,248
2018-11-13T07:41:23.261Z,236
2018-11-13T07:42:23.116Z,180
2018-11-13T07:43:22.880Z,176
2018-11-13T07:44:23.690Z,180
2018-11-13T07:45:23.460Z,192
2018-11-13T07:46:23.752Z,224
2018-11-13T07:47:23.635Z,268
2018-11-13T07:48:23.785Z,284
2018-11-13T07:49:22.997Z,268
2018-11-13T07:50:23.023Z,272
2018-11-13T07:51:23.498Z,288
2018-11-13T07:52:23.616Z,320
2018-11-13T07:53:23.094Z,344
2018-11-13T07:54:23.410Z,328
2018-11-13T07:55:23.402Z,316
2018-11-13T07:56:23.432Z,312
2018-11-13T07:57:23.731Z,312
2018-11-13T07:58:23.549Z,340
2018-11-13T07:59:23.760Z,328
2018-11-13T08:00:23.503Z,300
2018-11-13T08:01:23.283Z,292
2018-11-13T08:02:23.286Z,284
2018-11-13T08:03:24.057Z,300
2018-11-13T08:04:23.595Z,320
2018-11-13T08:05:23.356Z,340
2018-11-13T08:06:24.076Z,332
2018-11-13T08:07:23.836Z,328
2018-11-13T08:08:23.973Z,316
2018-11-13T08:09:24.129Z,316
2018-11-13T08:10:23.751Z,324
2018-11-13T08:11:23.486Z,324
2018-11-13T08:12:24.048Z,332
2018-11-13T08:13:25.029Z,344
2018-11-13T08:14:23.810Z,344
2018-11-13T08:15:23.588Z,356
2018-11-13T08:16:23.924Z,364
2018-11-13T08:17:24.164Z,380
2018-11-13T08:18:23.703Z,408
2018-11-13T08:19:24.459Z,424
2018-11-13T08:20:23.952Z,448
2018-11-13T08:21:23.978Z,548
2018-11-13T08:22:23.725Z,576
2018-11-13T08:23:24.557Z,556
2018-11-13T08:24:23.767Z,528
2018-11-13T08:25:24.606Z,668
2018-11-13T08:26:24.149Z,744
2018-11-13T08:27:24.099Z,776
2018-11-13T08:28:23.956Z,768
2018-11-13T08:29:24.737Z,696
2018-11-13T08:30:24.172Z,620
2018-11-13T08:31:24.262Z,656
2018-11-13T08:32:24.479Z,556
2018-11-13T08:33:24.760Z,568
2018-11-13T08:34:24.268Z,788
2018-11-13T08:35:24.288Z,776
2018-11-13T08:36:24.586Z,620
2018-11-13T08:37:24.061Z,736
2018-11-13T08:38:24.352Z,800
2018-11-13T08:39:24.365Z,816
2018-11-13T08:40:24.929Z,812
2018-11-13T08:41:24.674Z,756
2018-11-13T08:42:24.693Z,796
2018-11-13T08:43:24.734Z,828
2018-11-13T08:44:24.209Z,772
2018-11-13T08:45:24.791Z,824
2018-11-13T08:46:24.927Z,612
2018-11-13T08:47:24.273Z,648
2018-11-13T08:48:24.846Z,820
2018-11-13T08:49:24.861Z,824
2018-11-13T08:50:24.845Z,780
2018-11-13T08:51:24.637Z,804
2018-11-13T08:52:24.374Z,784
2018-11-13T08:53:24.669Z,812
2018-11-13T08:54:24.993Z,804
2018-11-13T08:55:24.719Z,812
2018-11-13T08:56:24.747Z,816
2018-11-13T08:57:25.046Z,808
2018-11-13T08:58:25.698Z,808
2018-11-13T08:59:25.149Z,808
2018-11-13T09:00:25.104Z,812
2018-11-13T09:01:24.853Z,812
2018-11-13T09:02:24.873Z,816
2018-11-13T09:03:25.431Z,816
2018-11-13T09:04:24.923Z,820
2018-11-13T09:05:25.168Z,820
2018-11-13T09:06:24.963Z,816
2018-11-13T09:07:24.971Z,840
2018-11-13T09:08:24.740Z,836
2018-11-13T09:09:25.293Z,856
2018-11-13T09:10:25.321Z,656
2018-11-13T09:11:25.350Z,836
2018-11-13T09:12:25.375Z,844
2018-11-13T09:13:24.843Z,908
2018-11-13T09:14:25.404Z,772
2018-11-13T09:15:25.146Z,724
2018-11-13T09:16:25.180Z,728
2018-11-13T09:17:24.927Z,732
2018-11-13T09:18:25.757Z,720
2018-11-13T09:19:26.172Z,1036
2018-11-13T09:20:25.259Z,948
2018-11-13T09:21:25.021Z,948
2018-11-13T09:22:25.330Z,1128
2018-11-13T09:23:25.341Z,1036
2018-11-13T09:24:25.932Z,1200
2018-11-13T09:25:25.107Z,1252
2018-11-13T09:26:25.123Z,1180
2018-11-13T09:27:25.683Z,1160
2018-11-13T09:28:25.438Z,1324
2018-11-13T09:29:25.458Z,1228
2018-11-13T09:30:25.330Z,1228
2018-11-13T09:31:25.537Z,1108
2018-11-13T09:32:25.270Z,1272
2018-11-13T09:33:26.179Z,1268
2018-11-13T09:34:25.298Z,904
2018-11-13T09:35:25.590Z,1108
2018-11-13T09:36:25.880Z,1048
2018-11-13T09:37:26.464Z,1112
2018-11-13T09:38:25.950Z,1156
2018-11-13T09:39:25.532Z,1028
2018-11-13T09:40:25.428Z,1252
2018-11-13T09:41:25.470Z,1244
2018-11-13T09:42:25.740Z,1252
2018-11-13T09:43:25.764Z,1204
2018-11-13T09:44:25.520Z,1244
2018-11-13T09:45:25.816Z,1180
2018-11-13T09:46:26.224Z,796
2018-11-13T09:47:25.938Z,912
2018-11-13T09:48:25.886Z,1048
2018-11-13T09:49:25.890Z,1044
2018-11-13T09:50:25.967Z,1060
2018-11-13T09:51:25.940Z,1176
2018-11-13T09:52:25.970Z,1252
2018-11-13T09:53:27.032Z,1128
2018-11-13T09:54:26.012Z,1460
2018-11-13T09:55:26.303Z,1144
2018-11-13T09:56:26.088Z,1228
2018-11-13T09:57:25.809Z,1332
2018-11-13T09:58:26.376Z,1212
2018-11-13T09:59:26.608Z,1124
2018-11-13T10:00:25.914Z,1044
2018-11-13T10:01:26.343Z,1108
2018-11-13T10:02:26.622Z,844
2018-11-13T10:03:27.820Z,1276
2018-11-13T10:04:28.221Z,1380
2018-11-13T10:05:27.160Z,1528
2018-11-13T10:06:26.269Z,1276
2018-11-13T10:07:26.025Z,1368
2018-11-13T10:08:26.859Z,1508
2018-11-13T10:09:26.612Z,1568
2018-11-13T10:10:26.392Z,1420
2018-11-13T10:11:26.658Z,1120
2018-11-13T10:12:26.670Z,1308
2018-11-13T10:13:26.442Z,1340
2018-11-13T10:14:26.728Z,1196
2018-11-13T10:15:26.206Z,992
2018-11-13T10:16:26.544Z,1292
2018-11-13T10:17:26.662Z,1172
2018-11-13T10:18:26.490Z,1348
2018-11-13T10:19:26.304Z,1384
2018-11-13T10:20:26.595Z,1324
2018-11-13T10:21:26.337Z,996
2018-11-13T10:22:26.894Z,1284
2018-11-13T10:23:26.922Z,1240
2018-11-13T10:24:26.673Z,1548
2018-11-13T10:25:26.689Z,1116
2018-11-13T10:26:26.941Z,1036
2018-11-13T10:27:26.734Z,1148
2018-11-13T10:28:26.492Z,952
2018-11-13T10:29:26.515Z,1356
2018-11-13T10:30:27.092Z,1328
2018-11-13T10:31:26.577Z,932
2018-11-13T10:32:26.850Z,1496
2018-11-13T10:33:26.871Z,1068
2018-11-13T10:34:26.888Z,1588
2018-11-13T10:35:26.914Z,1636
2018-11-13T10:36:27.203Z,1844
2018-11-13T10:37:27.307Z,1276
2018-11-13T10:38:27.270Z,1180
2018-11-13T10:39:27.286Z,1248
2018-11-13T10:40:27.814Z,1208
2018-11-13T10:41:27.234Z,1100
2018-11-13T10:42:27.617Z,1076
2018-11-13T10:43:27.092Z,1132
2018-11-13T10:44:26.882Z,1296
2018-11-13T10:45:27.691Z,1224
2018-11-13T10:46:26.906Z,952
2018-11-13T10:47:27.211Z,1176
2018-11-13T10:48:26.945Z,948
2018-11-13T10:49:27.500Z,624
2018-11-13T10:50:27.974Z,764
2018-11-13T10:51:27.012Z,1132
2018-11-13T10:52:27.303Z,1328
2018-11-13T10:53:27.606Z,1396
2018-11-13T10:54:27.355Z,1520
2018-11-13T10:55:27.920Z,1784
2018-11-13T10:56:27.159Z,1396
2018-11-13T10:57:27.414Z,1160
2018-11-13T10:58:27.171Z,888
2018-11-13T10:59:27.479Z,780
2018-11-13T11:00:27.481Z,976
2018-11-13T11:01:27.494Z,1024
2018-11-13T11:02:27.723Z,1140
2018-11-13T11:03:27.823Z,1136
2018-11-13T11:04:27.973Z,1124
2018-11-13T11:05:27.593Z,924
2018-11-13T11:06:27.874Z,668
2018-11-13T11:07:27.640Z,464
2018-11-13T11:08:28.045Z,348
2018-11-13T11:09:27.671Z,384
2018-11-13T11:10:27.995Z,364
2018-11-13T11:11:28.011Z,368
2018-11-13T11:12:27.747Z,516
2018-11-13T11:13:28.321Z,540
2018-11-13T11:14:27.538Z,600
2018-11-13T11:15:28.088Z,668
2018-11-13T11:16:28.382Z,640
2018-11-13T11:17:27.594Z,612
2018-11-13T11:18:27.606Z,680
2018-11-13T11:19:28.638Z,680
2018-11-13T11:20:27.930Z,728
2018-11-13T11:21:28.216Z,1024
2018-11-13T11:22:28.240Z,1188
2018-11-13T11:23:28.112Z,1420
2018-11-13T11:24:28.769Z,1564
2018-11-13T11:25:28.932Z,1660
2018-11-13T11:26:28.165Z,1552
2018-11-13T11:27:28.348Z,1252
2018-11-13T11:28:28.116Z,1368
2018-11-13T11:29:28.394Z,1348
2018-11-13T11:30:27.870Z,1152
2018-11-13T11:31:28.451Z,1300
2018-11-13T11:32:27.933Z,1612
2018-11-13T11:33:28.498Z,1804
2018-11-13T11:34:28.235Z,2044
2018-11-13T11:35:28.544Z,2172
2018-11-13T11:36:28.296Z,2008
2018-11-13T11:37:28.297Z,1896
2018-11-13T11:38:28.504Z,1764
2018-11-13T11:39:28.090Z,1296
2018-11-13T11:40:28.647Z,1012
2018-11-13T11:41:28.669Z,820
2018-11-13T11:42:28.408Z,608
2018-11-13T11:43:28.704Z,644
2018-11-13T11:44:28.816Z,900
2018-11-13T11:45:28.750Z,1160
2018-11-13T11:46:28.514Z,2520
2018-11-13T11:47:29.062Z,2676
2018-11-13T11:48:28.862Z,2336
2018-11-13T11:49:28.566Z,1440
2018-11-13T11:50:28.318Z,1320
2018-11-13T11:51:28.355Z,1288
2018-11-13T11:52:28.629Z,964
2018-11-13T11:53:28.659Z,920
2018-11-13T11:54:28.687Z,924
2018-11-13T11:55:28.703Z,872
2018-11-13T11:56:28.737Z,852
2018-11-13T11:57:28.489Z,1000
2018-11-13T11:58:29.032Z,1244
2018-11-13T11:59:28.522Z,1248
2018-11-13T12:00:29.207Z,1216
2018-11-13T12:01:29.116Z,1888
2018-11-13T12:02:29.340Z,2136
2018-11-13T12:03:28.611Z,2076
2018-11-13T12:04:28.951Z,1856
2018-11-13T12:05:29.467Z,1836
2018-11-13T12:06:29.224Z,1220
2018-11-13T12:07:28.714Z,952
2018-11-13T12:08:29.276Z,992
2018-11-13T12:09:29.554Z,1044
2018-11-13T12:10:29.310Z,1000
2018-11-13T12:11:29.336Z,924
2018-11-13T12:12:30.016Z,776
2018-11-13T12:13:29.376Z,836
2018-11-13T12:14:29.134Z,660
2018-11-13T12:15:29.437Z,512
2018-11-13T12:16:29.180Z,672
2018-11-13T12:17:29.469Z,664
2018-11-13T12:18:29.228Z,536
2018-11-13T12:19:29.712Z,572
2018-11-13T12:20:29.544Z,480
2018-11-13T12:21:29.831Z,544
2018-11-13T12:22:29.322Z,472
2018-11-13T12:23:29.069Z,332
2018-11-13T12:24:29.362Z,220
2018-11-13T12:25:29.651Z,324
2018-11-13T12:26:29.144Z,328
2018-11-13T12:27:29.426Z,300
2018-11-13T12:28:29.743Z,428
2018-11-13T12:29:29.490Z,356
2018-11-13T12:30:29.214Z,360
2018-11-13T12:31:30.054Z,288
2018-11-13T12:32:29.273Z,244
2018-11-13T12:33:29.556Z,364
2018-11-13T12:34:29.612Z,360
2018-11-13T12:35:29.948Z,396
2018-11-13T12:36:29.903Z,392
2018-11-13T12:37:29.381Z,392
2018-11-13T12:38:29.394Z,320
2018-11-13T12:39:29.425Z,396
2018-11-13T12:40:29.716Z,560
2018-11-13T12:41:30.011Z,348
2018-11-13T12:42:29.811Z,208
2018-11-13T12:43:29.781Z,284
2018-11-13T12:44:29.533Z,356
2018-11-13T12:45:30.092Z,292
2018-11-13T12:46:29.631Z,212
2018-11-13T12:47:29.868Z,152
2018-11-13T12:48:30.171Z,128
2018-11-13T12:49:30.089Z,144
2018-11-13T12:50:29.933Z,160
2018-11-13T12:51:29.958Z,152
2018-11-13T12:52:31.029Z,232
2018-11-13T12:53:30.549Z,228
2018-11-13T12:54:30.024Z,220
2018-11-13T12:55:30.602Z,228
2018-11-13T12:56:30.437Z,244
2018-11-13T12:57:30.101Z,344
2018-11-13T12:58:30.107Z,932
2018-11-13T12:59:30.418Z,2060
2018-11-13T13:00:30.711Z,1788
2018-11-13T13:01:30.176Z,1176
2018-11-13T13:02:30.645Z,1224
2018-11-13T13:03:30.220Z,1312
2018-11-13T13:04:30.771Z,1388
2018-11-13T13:05:29.999Z,1276
2018-11-13T13:06:30.555Z,1048
2018-11-13T13:07:30.615Z,1220
2018-11-13T13:08:30.722Z,1184
2018-11-13T13:09:30.633Z,1016
2018-11-13T13:10:30.393Z,656
2018-11-13T13:11:30.408Z,700
2018-11-13T13:12:30.435Z,1024
2018-11-13T13:13:30.460Z,1232
2018-11-13T13:14:30.474Z,1072
2018-11-13T13:15:30.229Z,836
2018-11-13T13:16:31.072Z,580
2018-11-13T13:17:31.083Z,504
2018-11-13T13:18:31.111Z,520
2018-11-13T13:19:30.309Z,652
2018-11-13T13:20:30.338Z,636
2018-11-13T13:21:30.637Z,1028
2018-11-13T13:22:30.849Z,1116
2018-11-13T13:23:30.674Z,1172
2018-11-13T13:24:30.700Z,1636
2018-11-13T13:25:31.280Z,1576
2018-11-13T13:26:31.272Z,1076
2018-11-13T13:27:30.487Z,1004
2018-11-13T13:28:30.515Z,1284
2018-11-13T13:29:30.797Z,1120
2018-11-13T13:30:30.836Z,1240
2018-11-13T13:31:31.167Z,1268
2018-11-13T13:32:30.873Z,1152
2018-11-13T13:33:30.900Z,984
2018-11-13T13:34:30.916Z,932
2018-11-13T13:35:30.935Z,540
2018-11-13T13:36:31.245Z,688
2018-11-13T13:37:30.981Z,672
2018-11-13T13:38:31.081Z,656
2018-11-13T13:39:31.564Z,884
2018-11-13T13:40:30.782Z,784
2018-11-13T13:41:31.343Z,512
2018-11-13T13:42:31.366Z,636
2018-11-13T13:43:31.706Z,860
2018-11-13T13:44:31.141Z,680
2018-11-13T13:45:31.710Z,800
2018-11-13T13:46:31.294Z,488
2018-11-13T13:47:30.933Z,468
2018-11-13T13:48:31.222Z,564
2018-11-13T13:49:31.251Z,596
2018-11-13T13:50:31.801Z,624
2018-11-13T13:51:31.561Z,832
2018-11-13T13:52:31.053Z,836
2018-11-13T13:53:31.358Z,772
2018-11-13T13:54:31.701Z,728
2018-11-13T13:55:32.823Z,676
2018-11-13T13:56:31.697Z,732
2018-11-13T13:57:31.489Z,704
2018-11-13T13:58:31.449Z,740
2018-11-13T13:59:32.303Z,712
2018-11-13T14:00:31.322Z,904
2018-11-13T14:01:31.534Z,1092
2018-11-13T14:02:31.544Z,828
2018-11-13T14:03:31.291Z,692
2018-11-13T14:04:31.856Z,560
2018-11-13T14:05:31.874Z,508
2018-11-13T14:06:31.912Z,452
2018-11-13T14:07:31.653Z,448
2018-11-13T14:08:31.468Z,444
2018-11-13T14:09:31.699Z,412